sensor_id;sensor_type;location;lat;lon;timestamp;temperature;humidity
51811;DHT22;52468;40.116;18.296;2023-07-16T00:00:34;27.40;70.00
51811;DHT22;52468;40.116;18.296;2023-07-16T00:03:03;27.30;70.80
51811;DHT22;52468;40.116;18.296;2023-07-16T00:05:31;27.30;71.00
51811;DHT22;52468;40.116;18.296;2023-07-16T00:07:59;27.30;71.30
51811;DHT22;52468;40.116;18.296;2023-07-16T00:10:27;27.30;71.60
51811;DHT22;52468;40.116;18.296;2023-07-16T00:12:54;27.30;71.80
51811;DHT22;52468;40.116;18.296;2023-07-16T00:15:22;27.30;72.10
51811;DHT22;52468;40.116;18.296;2023-07-16T00:17:50;27.30;72.10
51811;DHT22;52468;40.116;18.296;2023-07-16T00:20:18;27.30;72.30
51811;DHT22;52468;40.116;18.296;2023-07-16T00:22:46;27.20;72.80
51811;DHT22;52468;40.116;18.296;2023-07-16T00:25:15;27.10;73.50
51811;DHT22;52468;40.116;18.296;2023-07-16T00:27:43;27.10;74.00
51811;DHT22;52468;40.116;18.296;2023-07-16T00:30:11;27.10;74.30
51811;DHT22;52468;40.116;18.296;2023-07-16T00:32:39;27.10;74.30
51811;DHT22;52468;40.116;18.296;2023-07-16T00:35:07;27.00;74.60
51811;DHT22;52468;40.116;18.296;2023-07-16T00:37:35;27.00;75.10
51811;DHT22;52468;40.116;18.296;2023-07-16T00:40:03;27.00;75.00
51811;DHT22;52468;40.116;18.296;2023-07-16T00:42:31;26.90;75.40
51811;DHT22;52468;40.116;18.296;2023-07-16T00:44:59;26.90;75.80
51811;DHT22;52468;40.116;18.296;2023-07-16T00:47:28;27.00;75.80
51811;DHT22;52468;40.116;18.296;2023-07-16T00:49:56;26.90;76.00
51811;DHT22;52468;40.116;18.296;2023-07-16T00:52:25;26.90;76.20
51811;DHT22;52468;40.116;18.296;2023-07-16T00:54:53;26.90;76.20
51811;DHT22;52468;40.116;18.296;2023-07-16T00:57:23;27.00;75.70
51811;DHT22;52468;40.116;18.296;2023-07-16T00:59:51;27.00;75.70
51811;DHT22;52468;40.116;18.296;2023-07-16T01:02:18;27.00;75.50
51811;DHT22;52468;40.116;18.296;2023-07-16T01:04:47;26.90;75.50
51811;DHT22;52468;40.116;18.296;2023-07-16T01:07:16;26.90;75.50
51811;DHT22;52468;40.116;18.296;2023-07-16T01:09:45;26.90;75.50
51811;DHT22;52468;40.116;18.296;2023-07-16T01:12:14;26.90;75.60
51811;DHT22;52468;40.116;18.296;2023-07-16T01:14:42;26.80;75.80
51811;DHT22;52468;40.116;18.296;2023-07-16T01:17:10;26.80;75.90
51811;DHT22;52468;40.116;18.296;2023-07-16T01:19:38;26.70;76.30
51811;DHT22;52468;40.116;18.296;2023-07-16T01:27:50;26.60;76.70
51811;DHT22;52468;40.116;18.296;2023-07-16T01:30:23;26.60;76.80
51811;DHT22;52468;40.116;18.296;2023-07-16T01:32:52;26.60;76.70
51811;DHT22;52468;40.116;18.296;2023-07-16T01:35:21;26.60;76.70
51811;DHT22;52468;40.116;18.296;2023-07-16T01:37:49;26.50;76.90
51811;DHT22;52468;40.116;18.296;2023-07-16T01:40:17;26.50;77.00
51811;DHT22;52468;40.116;18.296;2023-07-16T01:42:45;26.60;76.90
51811;DHT22;52468;40.116;18.296;2023-07-16T01:45:12;26.60;76.80
51811;DHT22;52468;40.116;18.296;2023-07-16T01:47:59;26.50;76.60
51811;DHT22;52468;40.116;18.296;2023-07-16T01:50:27;26.50;75.90
51811;DHT22;52468;40.116;18.296;2023-07-16T01:52:55;26.40;75.60
51811;DHT22;52468;40.116;18.296;2023-07-16T01:55:25;26.40;75.70
51811;DHT22;52468;40.116;18.296;2023-07-16T01:57:53;26.30;75.60
51811;DHT22;52468;40.116;18.296;2023-07-16T02:00:21;26.30;75.80
51811;DHT22;52468;40.116;18.296;2023-07-16T02:02:50;26.20;75.80
51811;DHT22;52468;40.116;18.296;2023-07-16T02:05:18;26.10;75.90
51811;DHT22;52468;40.116;18.296;2023-07-16T02:07:47;26.10;75.50
51811;DHT22;52468;40.116;18.296;2023-07-16T02:10:15;26.00;75.00
51811;DHT22;52468;40.116;18.296;2023-07-16T02:12:43;26.00;74.70
51811;DHT22;52468;40.116;18.296;2023-07-16T02:15:11;25.90;74.60
51811;DHT22;52468;40.116;18.296;2023-07-16T02:17:39;25.90;74.70
51811;DHT22;52468;40.116;18.296;2023-07-16T02:20:07;25.80;75.40
51811;DHT22;52468;40.116;18.296;2023-07-16T02:22:35;25.80;76.50
51811;DHT22;52468;40.116;18.296;2023-07-16T02:25:04;25.80;77.50
51811;DHT22;52468;40.116;18.296;2023-07-16T02:27:32;26.00;77.60
51811;DHT22;52468;40.116;18.296;2023-07-16T02:30:00;26.00;77.70
51811;DHT22;52468;40.116;18.296;2023-07-16T02:32:29;26.10;77.70
51811;DHT22;52468;40.116;18.296;2023-07-16T02:35:01;26.10;77.70
51811;DHT22;52468;40.116;18.296;2023-07-16T02:37:31;26.20;77.70
51811;DHT22;52468;40.116;18.296;2023-07-16T02:39:59;26.20;77.70
51811;DHT22;52468;40.116;18.296;2023-07-16T02:42:27;26.20;77.70
51811;DHT22;52468;40.116;18.296;2023-07-16T02:44:55;26.20;77.70
51811;DHT22;52468;40.116;18.296;2023-07-16T02:47:23;26.20;77.50
51811;DHT22;52468;40.116;18.296;2023-07-16T02:49:52;26.20;77.40
51811;DHT22;52468;40.116;18.296;2023-07-16T02:52:20;26.20;77.40
51811;DHT22;52468;40.116;18.296;2023-07-16T02:54:47;26.20;77.40
51811;DHT22;52468;40.116;18.296;2023-07-16T02:57:16;26.30;77.10
51811;DHT22;52468;40.116;18.296;2023-07-16T02:59:44;26.20;77.30
51811;DHT22;52468;40.116;18.296;2023-07-16T03:02:11;26.20;77.30
51811;DHT22;52468;40.116;18.296;2023-07-16T03:04:39;26.10;77.20
51811;DHT22;52468;40.116;18.296;2023-07-16T03:07:07;26.20;77.10
51811;DHT22;52468;40.116;18.296;2023-07-16T03:09:35;26.20;77.10
51811;DHT22;52468;40.116;18.296;2023-07-16T03:12:05;26.10;77.10
51811;DHT22;52468;40.116;18.296;2023-07-16T03:14:33;26.10;77.00
51811;DHT22;52468;40.116;18.296;2023-07-16T03:17:00;26.10;77.10
51811;DHT22;52468;40.116;18.296;2023-07-16T03:19:29;26.10;77.10
51811;DHT22;52468;40.116;18.296;2023-07-16T03:21:57;26.00;77.40
51811;DHT22;52468;40.116;18.296;2023-07-16T03:24:24;26.00;77.50
51811;DHT22;52468;40.116;18.296;2023-07-16T03:26:52;26.10;77.40
51811;DHT22;52468;40.116;18.296;2023-07-16T03:29:25;26.10;77.40
51811;DHT22;52468;40.116;18.296;2023-07-16T03:31:53;26.10;77.60
51811;DHT22;52468;40.116;18.296;2023-07-16T03:34:23;26.00;77.70
51811;DHT22;52468;40.116;18.296;2023-07-16T03:36:51;26.00;78.00
51811;DHT22;52468;40.116;18.296;2023-07-16T03:39:19;26.00;78.00
51811;DHT22;52468;40.116;18.296;2023-07-16T03:41:47;26.00;77.70
51811;DHT22;52468;40.116;18.296;2023-07-16T03:44:15;26.00;77.10
51811;DHT22;52468;40.116;18.296;2023-07-16T03:46:44;26.00;76.90
51811;DHT22;52468;40.116;18.296;2023-07-16T03:49:12;26.00;76.90
51811;DHT22;52468;40.116;18.296;2023-07-16T03:51:40;26.00;77.30
51811;DHT22;52468;40.116;18.296;2023-07-16T03:54:09;26.20;76.70
51811;DHT22;52468;40.116;18.296;2023-07-16T03:56:37;26.30;76.30
51811;DHT22;52468;40.116;18.296;2023-07-16T03:59:05;26.40;75.50
51811;DHT22;52468;40.116;18.296;2023-07-16T04:01:33;26.50;74.40
51811;DHT22;52468;40.116;18.296;2023-07-16T04:04:01;26.60;73.50
51811;DHT22;52468;40.116;18.296;2023-07-16T04:06:30;26.60;73.50
51811;DHT22;52468;40.116;18.296;2023-07-16T04:08:57;26.60;73.70
51811;DHT22;52468;40.116;18.296;2023-07-16T04:11:25;26.70;74.10
51811;DHT22;52468;40.116;18.296;2023-07-16T04:13:53;26.90;73.70
51811;DHT22;52468;40.116;18.296;2023-07-16T04:16:21;27.10;73.30
51811;DHT22;52468;40.116;18.296;2023-07-16T04:18:49;27.30;72.60
51811;DHT22;52468;40.116;18.296;2023-07-16T04:21:17;27.60;71.70
51811;DHT22;52468;40.116;18.296;2023-07-16T04:23:46;27.70;71.00
51811;DHT22;52468;40.116;18.296;2023-07-16T04:26:14;27.90;70.50
51811;DHT22;52468;40.116;18.296;2023-07-16T04:28:41;28.00;69.70
51811;DHT22;52468;40.116;18.296;2023-07-16T04:31:09;28.00;69.30
51811;DHT22;52468;40.116;18.296;2023-07-16T04:33:37;28.10;69.30
51811;DHT22;52468;40.116;18.296;2023-07-16T04:36:05;28.20;68.60
51811;DHT22;52468;40.116;18.296;2023-07-16T04:38:33;28.30;68.20
51811;DHT22;52468;40.116;18.296;2023-07-16T04:41:01;28.50;68.00
51811;DHT22;52468;40.116;18.296;2023-07-16T04:43:28;28.50;67.40
51811;DHT22;52468;40.116;18.296;2023-07-16T04:45:56;28.50;67.00
51811;DHT22;52468;40.116;18.296;2023-07-16T04:48:25;28.50;66.40
51811;DHT22;52468;40.116;18.296;2023-07-16T04:50:53;28.60;66.20
51811;DHT22;52468;40.116;18.296;2023-07-16T04:53:22;28.70;65.70
51811;DHT22;52468;40.116;18.296;2023-07-16T04:55:50;28.90;65.30
51811;DHT22;52468;40.116;18.296;2023-07-16T04:58:18;29.10;64.30
51811;DHT22;52468;40.116;18.296;2023-07-16T05:00:46;29.30;63.30
51811;DHT22;52468;40.116;18.296;2023-07-16T05:03:14;29.40;62.70
51811;DHT22;52468;40.116;18.296;2023-07-16T05:05:42;29.70;62.00
51811;DHT22;52468;40.116;18.296;2023-07-16T05:08:10;29.90;61.00
51811;DHT22;52468;40.116;18.296;2023-07-16T05:10:38;30.00;60.40
51811;DHT22;52468;40.116;18.296;2023-07-16T05:13:06;30.00;59.90
51811;DHT22;52468;40.116;18.296;2023-07-16T05:15:33;30.10;59.20
51811;DHT22;52468;40.116;18.296;2023-07-16T05:18:01;30.10;59.00
51811;DHT22;52468;40.116;18.296;2023-07-16T05:20:30;30.20;58.70
51811;DHT22;52468;40.116;18.296;2023-07-16T05:22:58;30.30;58.00
51811;DHT22;52468;40.116;18.296;2023-07-16T05:25:26;30.40;57.90
51811;DHT22;52468;40.116;18.296;2023-07-16T05:27:55;30.60;57.30
51811;DHT22;52468;40.116;18.296;2023-07-16T05:30:22;30.60;57.10
51811;DHT22;52468;40.116;18.296;2023-07-16T05:32:50;30.80;55.70
51811;DHT22;52468;40.116;18.296;2023-07-16T05:35:18;30.80;55.40
51811;DHT22;52468;40.116;18.296;2023-07-16T05:37:46;30.90;54.90
51811;DHT22;52468;40.116;18.296;2023-07-16T05:40:14;31.00;54.40
51811;DHT22;52468;40.116;18.296;2023-07-16T05:42:42;31.00;53.70
51811;DHT22;52468;40.116;18.296;2023-07-16T05:45:10;31.10;53.20
51811;DHT22;52468;40.116;18.296;2023-07-16T05:47:38;31.30;52.50
51811;DHT22;52468;40.116;18.296;2023-07-16T05:50:06;31.50;52.30
51811;DHT22;52468;40.116;18.296;2023-07-16T05:52:34;31.50;51.80
51811;DHT22;52468;40.116;18.296;2023-07-16T05:55:02;31.60;50.50
51811;DHT22;52468;40.116;18.296;2023-07-16T05:57:30;31.60;49.80
51811;DHT22;52468;40.116;18.296;2023-07-16T05:59:58;31.80;49.00
51811;DHT22;52468;40.116;18.296;2023-07-16T06:02:26;31.90;47.70
51811;DHT22;52468;40.116;18.296;2023-07-16T06:04:54;32.00;46.70
51811;DHT22;52468;40.116;18.296;2023-07-16T06:07:21;32.00;46.50
51811;DHT22;52468;40.116;18.296;2023-07-16T06:09:49;32.10;45.80
51811;DHT22;52468;40.116;18.296;2023-07-16T06:12:17;32.20;45.40
51811;DHT22;52468;40.116;18.296;2023-07-16T06:14:45;32.30;44.90
51811;DHT22;52468;40.116;18.296;2023-07-16T06:17:13;32.40;44.70
51811;DHT22;52468;40.116;18.296;2023-07-16T06:19:42;32.50;44.40
51811;DHT22;52468;40.116;18.296;2023-07-16T06:22:10;32.80;44.20
51811;DHT22;52468;40.116;18.296;2023-07-16T06:24:38;32.80;44.00
51811;DHT22;52468;40.116;18.296;2023-07-16T06:27:06;33.00;43.70
51811;DHT22;52468;40.116;18.296;2023-07-16T06:29:34;33.00;43.40
51811;DHT22;52468;40.116;18.296;2023-07-16T06:32:02;33.10;43.30
51811;DHT22;52468;40.116;18.296;2023-07-16T06:34:30;33.20;43.00
51811;DHT22;52468;40.116;18.296;2023-07-16T06:36:58;33.20;43.20
51811;DHT22;52468;40.116;18.296;2023-07-16T06:39:26;33.30;43.40
51811;DHT22;52468;40.116;18.296;2023-07-16T06:41:54;33.50;43.30
51811;DHT22;52468;40.116;18.296;2023-07-16T06:44:22;33.50;43.60
51811;DHT22;52468;40.116;18.296;2023-07-16T06:46:51;33.60;43.00
51811;DHT22;52468;40.116;18.296;2023-07-16T06:49:19;33.70;42.70
51811;DHT22;52468;40.116;18.296;2023-07-16T06:51:47;33.70;42.30
51811;DHT22;52468;40.116;18.296;2023-07-16T06:54:15;33.80;42.20
51811;DHT22;52468;40.116;18.296;2023-07-16T06:56:43;34.10;41.60
51811;DHT22;52468;40.116;18.296;2023-07-16T06:59:11;34.10;41.20
51811;DHT22;52468;40.116;18.296;2023-07-16T07:01:38;34.10;40.40
51811;DHT22;52468;40.116;18.296;2023-07-16T07:04:06;34.20;39.80
51811;DHT22;52468;40.116;18.296;2023-07-16T07:06:34;34.20;40.20
51811;DHT22;52468;40.116;18.296;2023-07-16T07:09:02;34.30;40.40
51811;DHT22;52468;40.116;18.296;2023-07-16T07:11:31;34.40;40.30
51811;DHT22;52468;40.116;18.296;2023-07-16T07:13:59;34.30;40.30
51811;DHT22;52468;40.116;18.296;2023-07-16T07:16:27;34.40;40.10
51811;DHT22;52468;40.116;18.296;2023-07-16T07:18:56;34.50;38.90
51811;DHT22;52468;40.116;18.296;2023-07-16T07:21:24;34.60;38.10
51811;DHT22;52468;40.116;18.296;2023-07-16T07:23:51;34.70;37.10
51811;DHT22;52468;40.116;18.296;2023-07-16T07:26:19;34.70;36.40
51811;DHT22;52468;40.116;18.296;2023-07-16T07:28:47;34.80;36.50
51811;DHT22;52468;40.116;18.296;2023-07-16T07:31:15;34.90;35.50
51811;DHT22;52468;40.116;18.296;2023-07-16T07:33:43;34.90;35.10
51811;DHT22;52468;40.116;18.296;2023-07-16T07:36:11;34.90;35.70
51811;DHT22;52468;40.116;18.296;2023-07-16T07:38:39;35.10;34.90
51811;DHT22;52468;40.116;18.296;2023-07-16T07:41:07;35.20;34.80
51811;DHT22;52468;40.116;18.296;2023-07-16T07:43:34;35.20;34.80
51811;DHT22;52468;40.116;18.296;2023-07-16T07:46:02;35.30;34.20
51811;DHT22;52468;40.116;18.296;2023-07-16T07:48:30;35.30;33.40
51811;DHT22;52468;40.116;18.296;2023-07-16T07:50:58;35.40;33.00
51811;DHT22;52468;40.116;18.296;2023-07-16T07:53:26;35.50;32.90
51811;DHT22;52468;40.116;18.296;2023-07-16T07:55:54;35.50;32.90
51811;DHT22;52468;40.116;18.296;2023-07-16T07:58:23;35.60;32.70
51811;DHT22;52468;40.116;18.296;2023-07-16T08:00:51;35.60;32.50
51811;DHT22;52468;40.116;18.296;2023-07-16T08:03:19;35.80;32.10
51811;DHT22;52468;40.116;18.296;2023-07-16T08:05:50;35.90;32.20
51811;DHT22;52468;40.116;18.296;2023-07-16T08:08:18;36.00;32.50
51811;DHT22;52468;40.116;18.296;2023-07-16T08:10:45;36.10;32.50
51811;DHT22;52468;40.116;18.296;2023-07-16T08:13:14;36.10;32.20
51811;DHT22;52468;40.116;18.296;2023-07-16T08:15:42;36.00;33.10
51811;DHT22;52468;40.116;18.296;2023-07-16T08:18:10;36.00;32.00
51811;DHT22;52468;40.116;18.296;2023-07-16T08:20:38;36.10;32.10
51811;DHT22;52468;40.116;18.296;2023-07-16T08:23:06;36.00;32.10
51811;DHT22;52468;40.116;18.296;2023-07-16T08:25:34;36.20;32.10
51811;DHT22;52468;40.116;18.296;2023-07-16T08:28:02;36.30;31.80
51811;DHT22;52468;40.116;18.296;2023-07-16T08:30:32;36.30;30.90
51811;DHT22;52468;40.116;18.296;2023-07-16T08:33:00;36.40;30.70
51811;DHT22;52468;40.116;18.296;2023-07-16T08:35:28;36.50;30.20
51811;DHT22;52468;40.116;18.296;2023-07-16T08:37:56;36.70;29.70
51811;DHT22;52468;40.116;18.296;2023-07-16T08:40:24;36.80;29.30
51811;DHT22;52468;40.116;18.296;2023-07-16T08:42:52;36.70;29.60
51811;DHT22;52468;40.116;18.296;2023-07-16T08:45:21;36.70;29.50
51811;DHT22;52468;40.116;18.296;2023-07-16T08:47:51;36.80;29.30
51811;DHT22;52468;40.116;18.296;2023-07-16T08:50:21;36.90;28.70
51811;DHT22;52468;40.116;18.296;2023-07-16T08:52:49;36.90;29.20
51811;DHT22;52468;40.116;18.296;2023-07-16T08:55:17;37.10;29.10
51811;DHT22;52468;40.116;18.296;2023-07-16T08:57:46;37.20;28.60
51811;DHT22;52468;40.116;18.296;2023-07-16T09:00:15;37.30;28.50
51811;DHT22;52468;40.116;18.296;2023-07-16T09:02:43;37.40;28.50
51811;DHT22;52468;40.116;18.296;2023-07-16T09:05:11;37.50;28.10
51811;DHT22;52468;40.116;18.296;2023-07-16T09:07:47;37.50;28.40
51811;DHT22;52468;40.116;18.296;2023-07-16T09:10:15;37.30;27.10
51811;DHT22;52468;40.116;18.296;2023-07-16T09:12:44;37.20;26.70
51811;DHT22;52468;40.116;18.296;2023-07-16T09:15:17;37.30;26.80
51811;DHT22;52468;40.116;18.296;2023-07-16T09:17:48;37.30;27.20
51811;DHT22;52468;40.116;18.296;2023-07-16T09:20:17;37.40;26.90
51811;DHT22;52468;40.116;18.296;2023-07-16T09:22:46;37.30;26.50
51811;DHT22;52468;40.116;18.296;2023-07-16T09:25:14;37.40;26.90
51811;DHT22;52468;40.116;18.296;2023-07-16T09:27:42;37.50;27.30
51811;DHT22;52468;40.116;18.296;2023-07-16T09:30:15;37.50;27.20
51811;DHT22;52468;40.116;18.296;2023-07-16T09:32:43;37.50;27.50
51811;DHT22;52468;40.116;18.296;2023-07-16T09:35:13;37.70;26.30
51811;DHT22;52468;40.116;18.296;2023-07-16T09:37:41;38.00;26.70
51811;DHT22;52468;40.116;18.296;2023-07-16T09:40:11;38.20;26.50
51811;DHT22;52468;40.116;18.296;2023-07-16T09:42:42;38.10;26.60
51811;DHT22;52468;40.116;18.296;2023-07-16T09:45:17;38.20;26.60
51811;DHT22;52468;40.116;18.296;2023-07-16T09:47:46;38.30;26.00
51811;DHT22;52468;40.116;18.296;2023-07-16T09:50:14;38.20;26.20
51811;DHT22;52468;40.116;18.296;2023-07-16T09:52:43;38.10;25.10
51811;DHT22;52468;40.116;18.296;2023-07-16T09:55:11;38.10;23.70
51811;DHT22;52468;40.116;18.296;2023-07-16T09:57:42;38.00;23.80
51811;DHT22;52468;40.116;18.296;2023-07-16T10:00:12;37.90;24.40
51811;DHT22;52468;40.116;18.296;2023-07-16T10:02:44;38.00;24.10
51811;DHT22;52468;40.116;18.296;2023-07-16T10:05:17;38.20;23.70
51811;DHT22;52468;40.116;18.296;2023-07-16T10:07:53;38.10;23.30
51811;DHT22;52468;40.116;18.296;2023-07-16T10:10:44;38.10;23.30
51811;DHT22;52468;40.116;18.296;2023-07-16T10:13:13;38.00;23.60
51811;DHT22;52468;40.116;18.296;2023-07-16T10:15:55;38.20;23.80
51811;DHT22;52468;40.116;18.296;2023-07-16T10:18:32;38.30;23.50
51811;DHT22;52468;40.116;18.296;2023-07-16T10:23:40;38.40;22.80
51811;DHT22;52468;40.116;18.296;2023-07-16T10:26:11;38.40;22.50
51811;DHT22;52468;40.116;18.296;2023-07-16T10:28:40;38.50;23.10
51811;DHT22;52468;40.116;18.296;2023-07-16T10:31:25;38.60;23.10
51811;DHT22;52468;40.116;18.296;2023-07-16T10:33:59;38.60;23.70
51811;DHT22;52468;40.116;18.296;2023-07-16T10:36:27;38.60;23.20
51811;DHT22;52468;40.116;18.296;2023-07-16T10:39:02;38.60;23.00
51811;DHT22;52468;40.116;18.296;2023-07-16T10:41:33;38.80;23.40
51811;DHT22;52468;40.116;18.296;2023-07-16T10:44:02;38.80;23.20
51811;DHT22;52468;40.116;18.296;2023-07-16T10:46:31;38.80;23.30
51811;DHT22;52468;40.116;18.296;2023-07-16T10:49:01;38.90;23.30
51811;DHT22;52468;40.116;18.296;2023-07-16T10:51:29;39.10;22.10
51811;DHT22;52468;40.116;18.296;2023-07-16T10:53:57;39.20;22.40
51811;DHT22;52468;40.116;18.296;2023-07-16T10:56:25;39.10;22.90
51811;DHT22;52468;40.116;18.296;2023-07-16T10:58:54;39.20;23.30
51811;DHT22;52468;40.116;18.296;2023-07-16T11:01:22;39.00;23.60
51811;DHT22;52468;40.116;18.296;2023-07-16T11:03:50;39.10;23.30
51811;DHT22;52468;40.116;18.296;2023-07-16T11:06:18;39.20;23.20
51811;DHT22;52468;40.116;18.296;2023-07-16T11:08:46;39.00;23.90
51811;DHT22;52468;40.116;18.296;2023-07-16T11:11:15;39.00;24.10
51811;DHT22;52468;40.116;18.296;2023-07-16T11:13:43;39.00;23.60
51811;DHT22;52468;40.116;18.296;2023-07-16T11:16:15;39.40;23.30
51811;DHT22;52468;40.116;18.296;2023-07-16T11:18:44;39.40;23.30
51811;DHT22;52468;40.116;18.296;2023-07-16T11:21:11;39.30;23.60
51811;DHT22;52468;40.116;18.296;2023-07-16T11:23:39;39.20;23.00
51811;DHT22;52468;40.116;18.296;2023-07-16T11:26:08;39.20;23.60
51811;DHT22;52468;40.116;18.296;2023-07-16T11:28:40;39.30;23.40
51811;DHT22;52468;40.116;18.296;2023-07-16T11:31:14;39.30;23.70
51811;DHT22;52468;40.116;18.296;2023-07-16T11:33:46;39.60;23.50
51811;DHT22;52468;40.116;18.296;2023-07-16T11:36:16;39.50;23.40
51811;DHT22;52468;40.116;18.296;2023-07-16T11:38:44;39.60;23.50
51811;DHT22;52468;40.116;18.296;2023-07-16T11:41:12;39.60;23.90
51811;DHT22;52468;40.116;18.296;2023-07-16T11:43:40;39.50;23.80
51811;DHT22;52468;40.116;18.296;2023-07-16T11:46:15;39.50;23.50
51811;DHT22;52468;40.116;18.296;2023-07-16T11:48:44;39.50;23.50
51811;DHT22;52468;40.116;18.296;2023-07-16T11:51:12;39.30;23.70
51811;DHT22;52468;40.116;18.296;2023-07-16T11:53:40;39.40;23.90
51811;DHT22;52468;40.116;18.296;2023-07-16T11:56:08;39.40;23.60
51811;DHT22;52468;40.116;18.296;2023-07-16T11:58:37;39.50;23.60
51811;DHT22;52468;40.116;18.296;2023-07-16T12:01:04;39.30;23.40
51811;DHT22;52468;40.116;18.296;2023-07-16T12:03:32;39.20;23.20
51811;DHT22;52468;40.116;18.296;2023-07-16T12:06:00;39.40;23.00
51811;DHT22;52468;40.116;18.296;2023-07-16T12:08:28;39.50;23.20
51811;DHT22;52468;40.116;18.296;2023-07-16T12:10:57;39.40;23.40
51811;DHT22;52468;40.116;18.296;2023-07-16T12:13:26;39.50;23.30
51811;DHT22;52468;40.116;18.296;2023-07-16T12:15:54;39.70;23.30
51811;DHT22;52468;40.116;18.296;2023-07-16T12:18:22;39.80;23.10
51811;DHT22;52468;40.116;18.296;2023-07-16T12:20:49;40.00;23.10
51811;DHT22;52468;40.116;18.296;2023-07-16T12:23:17;40.10;23.20
51811;DHT22;52468;40.116;18.296;2023-07-16T12:25:45;40.00;23.50
51811;DHT22;52468;40.116;18.296;2023-07-16T12:28:13;40.00;23.50
51811;DHT22;52468;40.116;18.296;2023-07-16T12:30:41;40.00;23.50
51811;DHT22;52468;40.116;18.296;2023-07-16T12:33:09;39.90;23.60
51811;DHT22;52468;40.116;18.296;2023-07-16T12:35:37;40.10;23.30
51811;DHT22;52468;40.116;18.296;2023-07-16T12:38:05;40.40;23.00
51811;DHT22;52468;40.116;18.296;2023-07-16T12:40:32;40.70;22.70
51811;DHT22;52468;40.116;18.296;2023-07-16T12:43:07;41.10;22.00
51811;DHT22;52468;40.116;18.296;2023-07-16T12:45:35;41.20;21.90
51811;DHT22;52468;40.116;18.296;2023-07-16T12:48:03;41.60;21.90
51811;DHT22;52468;40.116;18.296;2023-07-16T12:50:31;42.00;21.20
51811;DHT22;52468;40.116;18.296;2023-07-16T12:52:59;42.40;20.70
51811;DHT22;52468;40.116;18.296;2023-07-16T12:55:26;42.90;20.20
51811;DHT22;52468;40.116;18.296;2023-07-16T12:57:54;43.30;19.40
51811;DHT22;52468;40.116;18.296;2023-07-16T13:00:22;44.00;19.20
51811;DHT22;52468;40.116;18.296;2023-07-16T13:02:50;44.80;18.90
51811;DHT22;52468;40.116;18.296;2023-07-16T13:05:18;45.80;18.30
51811;DHT22;52468;40.116;18.296;2023-07-16T13:07:46;46.20;17.90
51811;DHT22;52468;40.116;18.296;2023-07-16T13:10:13;47.20;16.90
51811;DHT22;52468;40.116;18.296;2023-07-16T13:12:46;47.10;17.00
51811;DHT22;52468;40.116;18.296;2023-07-16T13:15:14;47.40;16.60
51811;DHT22;52468;40.116;18.296;2023-07-16T13:17:41;47.90;16.60
51811;DHT22;52468;40.116;18.296;2023-07-16T13:20:10;48.10;16.20
51811;DHT22;52468;40.116;18.296;2023-07-16T13:22:38;47.80;15.70
51811;DHT22;52468;40.116;18.296;2023-07-16T13:25:06;47.20;16.30
51811;DHT22;52468;40.116;18.296;2023-07-16T13:27:34;46.90;17.10
51811;DHT22;52468;40.116;18.296;2023-07-16T13:30:02;47.80;16.30
51811;DHT22;52468;40.116;18.296;2023-07-16T13:32:31;48.00;16.10
51811;DHT22;52468;40.116;18.296;2023-07-16T13:34:59;47.90;15.80
51811;DHT22;52468;40.116;18.296;2023-07-16T13:37:27;47.60;15.90
51811;DHT22;52468;40.116;18.296;2023-07-16T13:39:55;48.00;16.00
51811;DHT22;52468;40.116;18.296;2023-07-16T13:42:22;48.50;15.90
51811;DHT22;52468;40.116;18.296;2023-07-16T13:44:51;48.40;15.70
51811;DHT22;52468;40.116;18.296;2023-07-16T13:47:18;48.50;15.70
51811;DHT22;52468;40.116;18.296;2023-07-16T13:49:48;49.50;15.50
51811;DHT22;52468;40.116;18.296;2023-07-16T13:52:16;49.60;15.30
51811;DHT22;52468;40.116;18.296;2023-07-16T13:54:44;48.00;16.30
51811;DHT22;52468;40.116;18.296;2023-07-16T13:57:12;48.00;16.00
51811;DHT22;52468;40.116;18.296;2023-07-16T13:59:40;48.40;15.80
51811;DHT22;52468;40.116;18.296;2023-07-16T14:02:07;48.60;16.20
51811;DHT22;52468;40.116;18.296;2023-07-16T14:04:35;48.50;16.00
51811;DHT22;52468;40.116;18.296;2023-07-16T14:07:04;48.40;16.40
51811;DHT22;52468;40.116;18.296;2023-07-16T14:09:31;47.90;16.40
51811;DHT22;52468;40.116;18.296;2023-07-16T14:11:59;47.90;16.70
51811;DHT22;52468;40.116;18.296;2023-07-16T14:14:27;48.30;16.40
51811;DHT22;52468;40.116;18.296;2023-07-16T14:16:55;48.30;16.50
51811;DHT22;52468;40.116;18.296;2023-07-16T14:19:23;48.10;16.30
51811;DHT22;52468;40.116;18.296;2023-07-16T14:21:51;48.50;16.00
51811;DHT22;52468;40.116;18.296;2023-07-16T14:24:19;48.10;16.20
51811;DHT22;52468;40.116;18.296;2023-07-16T14:26:46;47.60;16.40
51811;DHT22;52468;40.116;18.296;2023-07-16T14:29:15;48.10;16.10
51811;DHT22;52468;40.116;18.296;2023-07-16T14:31:43;48.40;16.00
51811;DHT22;52468;40.116;18.296;2023-07-16T14:34:11;48.60;16.00
51811;DHT22;52468;40.116;18.296;2023-07-16T14:36:40;48.00;16.20
51811;DHT22;52468;40.116;18.296;2023-07-16T14:39:09;47.80;16.20
51811;DHT22;52468;40.116;18.296;2023-07-16T14:41:37;48.10;16.20
51811;DHT22;52468;40.116;18.296;2023-07-16T14:44:05;48.30;16.10
51811;DHT22;52468;40.116;18.296;2023-07-16T14:46:33;48.50;16.20
51811;DHT22;52468;40.116;18.296;2023-07-16T14:49:01;48.10;16.50
51811;DHT22;52468;40.116;18.296;2023-07-16T14:51:29;48.00;16.60
51811;DHT22;52468;40.116;18.296;2023-07-16T14:53:57;47.70;16.90
51811;DHT22;52468;40.116;18.296;2023-07-16T14:56:25;47.50;17.20
51811;DHT22;52468;40.116;18.296;2023-07-16T14:58:53;48.30;16.80
51811;DHT22;52468;40.116;18.296;2023-07-16T15:01:21;47.90;17.00
51811;DHT22;52468;40.116;18.296;2023-07-16T15:03:49;47.60;16.90
51811;DHT22;52468;40.116;18.296;2023-07-16T15:06:17;47.80;16.70
51811;DHT22;52468;40.116;18.296;2023-07-16T15:08:45;48.20;16.90
51811;DHT22;52468;40.116;18.296;2023-07-16T15:11:13;48.10;16.40
51811;DHT22;52468;40.116;18.296;2023-07-16T15:13:41;47.80;16.30
51811;DHT22;52468;40.116;18.296;2023-07-16T15:16:09;47.60;16.80
51811;DHT22;52468;40.116;18.296;2023-07-16T15:18:40;48.10;16.60
51811;DHT22;52468;40.116;18.296;2023-07-16T15:21:08;48.80;17.20
51811;DHT22;52468;40.116;18.296;2023-07-16T15:23:36;48.70;17.30
51811;DHT22;52468;40.116;18.296;2023-07-16T15:26:05;48.10;17.60
51811;DHT22;52468;40.116;18.296;2023-07-16T15:28:35;48.00;17.40
51811;DHT22;52468;40.116;18.296;2023-07-16T15:31:05;48.10;16.90